Terminal Aerodrome Forecast
Issued by NWS

Home | Current Version | Previous Version | Graphics & Text | Print | Product List | Glossary On
Versions: 1 2 3 4 5 6 7 8 9 10 11 12 13 14 15 16 17
000
FTUS43 KIWX 281354 AAA
TAFSBN
TAF AMD
KSBN 281354Z 2814/2912 10014G20KT P6SM BKN015 OVC080
      TEMPO 2814/2817 -SHRA
     FM281700 08012G18KT P6SM BKN015
     FM290000 06008KT P6SM OVC015
     FM290800 02006KT P6SM OVC010=

USA.gov is the U.S. government's official web portal to all federal, state and local government web resources and services.